Airfield :
LOGIN :

Register | Disclaimer

   EN    FR    IT 

 










Legend :    VFR   Marginal VFR   IFR   Intensive IFR   Very Intensive IFR
Visi :
Ceiling :
>= 8 km
>= 3000ft
5 to 8 km
1000 to 3000 ft
1500m to 5 km
500 to 1000 ft
800 to 1500m
200 to 500 ft
< 800m
< 200 ft
Symbols :   Thunderstorms  Fog  Heavy snow  Heavy precipitations  Wind > 20 kt
SIGMETs :     Misc.  Thunderstorms  Icing  Turbulence  Mountain Waves  Volcanic Ashes







- Airport Elevation : 2776 ft
- IATA code : VLL


LEVD - Valladolid

CURRENT METAR :
  • 181930Z 05017KT 9999 FEW020 13/10 Q1015

EXPIRED METARs :
  • 181900Z 05015KT 9999 SCT028 13/09 Q1015
  • 181830Z 05012KT 9999 SCT023 13/10 Q1015
  • 181800Z 05019KT 9999 SCT023 14/09 Q1014
  • 181730Z 05017KT 9999 FEW025 15/09 Q1014
  • 181700Z 05019KT 9999 FEW030 16/09 Q1013

TAF TAF LEVD
Valid from the 18 at 18:00 until the 19 at 18:00 UTC


181700Z 1818/1918 05016KT 9999 SCT030 TX19/1915Z TN12/1906Z
PROB30
TEMPO 1909/1918 4000 RA BKN012
PROB40
TEMPO 1906/1918 05022G32KT
No reported NOTAMs for that airfield.
3 SIGMETs reported for the Madrid FIR (LECM) :
 
Severe turbulence
LECM SIGMET 17 VALID 181900/182200 LEVA
LECM MADRID FIR/UIR SEV TURB OBS AT 1853Z E OF LINE N36 W00450 - N3820 W00230 FL200/340 MOV NE NC=
Embedded thunderstorms
LECM SIGMET 16 VALID 181800/182000 LEVA
LECM MADRID FIR/UIR EMBD TS OBS AT 1750Z W OF LINE N3920 W00540 - N3750 W00610 TOP FL320 MOV W 20KT NC=
Embedded thunderstorms
LECM SIGMET 13 VALID 181619/182800 LEVA
LECM MADRID FIR/UIR EMBD TS OBS AT 1619Z WI N3930 W007 - N3950 W00310 - N3830 W003 - N3810 W007 - N3930 W007 TOP FL320 MOV ESE 20KT NC=



MET'MAP, your aeronautical weather chart ! - Copyright ORBIFLY December 2007 - Disclaimer

ORBIFLY MET'MAP TEAM :

Programming & Development : Alexandra Zaïnal
Concept & Development : Baudouin d'Aumeries
Co-Development & Prog : Marc-Olivier Méhu
Technical & hardware support : Manuel Goepfert

Contact : metmap@orbifly.com




SOURCES & CREDITS :

   NOAA